Time;durP1;ratioP1;P1;durP2;ratioP2;P2;SDS_P1;SDS_P2;PMS_P1;PMS_P2;Temp;Humidity;BMP_temperature;BMP_pressure;BME280_temperature;BME280_humidity;BME280_pressure;Samples;Min_cycle;Max_cycle;Signal;HPM_P1;HPM_P2
2021/05/15 00:00:46;;;;;;;7.70;3.88;;;;;;;;;;5117549;28;20024;-85
2021/05/15 00:03:12;;;;;;;5.60;3.70;;;;;;;;;;5117735;28;20016;-85
2021/05/15 00:05:38;;;;;;;9.43;4.07;;;;;;;;;;5117727;28;20024;-86
2021/05/15 00:08:05;;;;;;;10.05;5.00;;;;;;;;;;5116728;28;20023;-86
2021/05/15 00:10:32;;;;;;;13.65;7.05;;;;;;;;;;5117769;28;20413;-86
2021/05/15 00:12:58;;;;;;;16.88;6.65;;;;;;;;;;5121139;28;20457;-86
2021/05/15 00:15:30;;;;;;;9.20;4.95;;;;;;;;;;5120671;28;20028;-86
2021/05/15 00:17:56;;;;;;;5.53;3.90;;;;;;;;;;5121743;28;20023;-86
2021/05/15 00:20:22;;;;;;;30.60;5.40;;;;;;;;;;5121776;28;20115;-86
2021/05/15 00:22:48;;;;;;;6.30;3.88;;;;;;;;;;5121596;28;20150;-86
2021/05/15 00:25:16;;;;;;;5.78;3.78;;;;;;;;;;5121657;28;20097;-86
2021/05/15 00:27:42;;;;;;;7.82;3.88;;;;;;;;;;5120103;28;20040;-86
2021/05/15 00:30:09;;;;;;;3.67;3.38;;;;;;;;;;5121400;28;20102;-87
2021/05/15 00:35:39;;;;;;;5.13;3.58;;;;;;;;;;5121398;28;20043;-87
2021/05/15 00:38:05;;;;;;;4.72;3.40;;;;;;;;;;5120594;28;20031;-86
2021/05/15 00:40:31;;;;;;;4.90;3.58;;;;;;;;;;5121413;28;20093;-87
2021/05/15 00:42:57;;;;;;;4.60;3.83;;;;;;;;;;5121702;28;20081;-92
2021/05/15 00:45:23;;;;;;;6.45;3.70;;;;;;;;;;5121611;28;20027;-93
2021/05/15 00:47:49;;;;;;;5.47;3.80;;;;;;;;;;5121578;28;20024;-94
2021/05/15 00:50:15;;;;;;;4.35;3.67;;;;;;;;;;5120956;28;20044;-89
2021/05/15 00:52:42;;;;;;;4.10;3.70;;;;;;;;;;5121035;28;20023;-90
2021/05/15 00:55:12;;;;;;;5.30;3.55;;;;;;;;;;5120943;28;20027;-89
2021/05/15 00:57:39;;;;;;;5.03;3.50;;;;;;;;;;5121004;28;20038;-88
2021/05/15 01:00:14;;;;;;;6.88;3.78;;;;;;;;;;5120964;27;20061;-92
2021/05/15 01:08:47;;;;;;;5.45;3.80;;;;;;;;;;5120892;28;20027;-87
2021/05/15 01:11:14;;;;;;;5.03;3.75;;;;;;;;;;5120915;28;20020;-91
2021/05/15 01:13:49;;;;;;;5.70;3.90;;;;;;;;;;5120561;28;20016;-90
2021/05/15 01:16:15;;;;;;;6.55;4.47;;;;;;;;;;5119603;28;20039;-89
2021/05/15 01:18:41;;;;;;;6.93;5.05;;;;;;;;;;5120838;28;20024;-89
2021/05/15 01:21:07;;;;;;;12.25;5.18;;;;;;;;;;5119361;28;20039;-89
2021/05/15 01:23:33;;;;;;;10.00;5.55;;;;;;;;;;5119624;28;20024;-88
2021/05/15 01:25:59;;;;;;;9.60;6.10;;;;;;;;;;5119729;28;20059;-89
2021/05/15 01:28:29;;;;;;;15.15;6.38;;;;;;;;;;5120411;28;20043;-89
2021/05/15 01:37:03;;;;;;;15.70;6.22;;;;;;;;;;5120611;28;20114;-89
2021/05/15 01:39:31;;;;;;;16.48;6.38;;;;;;;;;;5120614;28;20023;-89
2021/05/15 01:41:57;;;;;;;10.70;6.68;;;;;;;;;;5120481;28;20020;-89
2021/05/15 01:44:23;;;;;;;14.48;7.10;;;;;;;;;;5119351;28;20030;-89
2021/05/15 01:46:49;;;;;;;11.63;6.45;;;;;;;;;;5120068;28;20032;-89
2021/05/15 01:49:15;;;;;;;10.70;6.68;;;;;;;;;;5118520;28;20059;-88
2021/05/15 01:51:41;;;;;;;11.57;6.53;;;;;;;;;;5120215;28;20016;-88
2021/05/15 01:54:07;;;;;;;16.30;7.28;;;;;;;;;;5119900;28;20019;-88
2021/05/15 01:56:33;;;;;;;14.45;6.90;;;;;;;;;;5120219;28;20015;-88
2021/05/15 01:58:59;;;;;;;12.57;6.72;;;;;;;;;;5118856;28;20451;-89
2021/05/15 02:01:26;;;;;;;14.35;6.60;;;;;;;;;;5118856;28;20036;-87
2021/05/15 02:03:52;;;;;;;11.05;6.78;;;;;;;;;;5119648;28;20023;-87
2021/05/15 02:06:19;;;;;;;9.65;6.95;;;;;;;;;;5120055;28;20031;-87
2021/05/15 02:08:46;;;;;;;15.57;8.20;;;;;;;;;;5118718;28;20028;-87
2021/05/15 02:11:22;;;;;;;10.90;7.80;;;;;;;;;;5119501;28;20104;-87
2021/05/15 02:13:48;;;;;;;13.30;7.60;;;;;;;;;;5119790;28;20209;-87
2021/05/15 02:16:15;;;;;;;10.40;7.28;;;;;;;;;;5119651;28;20046;-87
2021/05/15 02:18:41;;;;;;;9.05;6.88;;;;;;;;;;5118565;28;20030;-87
2021/05/15 02:21:07;;;;;;;9.93;7.00;;;;;;;;;;5119432;28;20031;-88
2021/05/15 02:23:34;;;;;;;10.90;7.10;;;;;;;;;;5119599;28;20031;-90
2021/05/15 02:26:01;;;;;;;9.73;7.40;;;;;;;;;;5118626;28;20054;-89
2021/05/15 02:28:27;;;;;;;10.05;6.95;;;;;;;;;;5119396;28;20024;-85
2021/05/15 02:37:00;;;;;;;12.15;7.55;;;;;;;;;;5119363;28;20043;-87
2021/05/15 02:39:26;;;;;;;13.48;8.60;;;;;;;;;;5119335;28;20023;-88
2021/05/15 02:41:52;;;;;;;15.70;8.55;;;;;;;;;;5119221;28;20016;-87
2021/05/15 02:44:18;;;;;;;12.50;9.00;;;;;;;;;;5118922;28;20020;-89
2021/05/15 02:46:44;;;;;;;11.85;8.88;;;;;;;;;;5119260;28;20350;-89
2021/05/15 02:49:10;;;;;;;27.70;11.45;;;;;;;;;;5119089;28;20347;-87
2021/05/15 02:51:36;;;;;;;10.88;7.80;;;;;;;;;;5118943;28;20024;-88
2021/05/15 02:54:02;;;;;;;9.73;8.45;;;;;;;;;;5119111;28;20073;-89
2021/05/15 02:56:29;;;;;;;11.00;7.85;;;;;;;;;;5118976;28;20074;-88
2021/05/15 02:58:55;;;;;;;9.68;8.63;;;;;;;;;;5118721;28;20035;-88
2021/05/15 03:01:21;;;;;;;9.80;7.75;;;;;;;;;;5118908;28;20044;-88
2021/05/15 03:03:47;;;;;;;9.65;8.20;;;;;;;;;;5118592;28;20030;-89
2021/05/15 03:06:14;;;;;;;11.52;8.30;;;;;;;;;;5118649;28;20064;-87
2021/05/15 03:08:40;;;;;;;9.88;7.97;;;;;;;;;;5117577;28;20055;-88
2021/05/15 03:11:06;;;;;;;11.27;8.45;;;;;;;;;;5118789;28;20058;-88
2021/05/15 03:13:32;;;;;;;9.00;7.63;;;;;;;;;;5118776;28;20030;-88
2021/05/15 03:15:58;;;;;;;9.60;8.32;;;;;;;;;;5118575;28;20031;-88
2021/05/15 03:18:24;;;;;;;10.98;8.52;;;;;;;;;;5118441;28;20073;-88
2021/05/15 03:20:51;;;;;;;12.52;8.60;;;;;;;;;;5118593;28;20024;-88
2021/05/15 03:23:17;;;;;;;11.70;8.88;;;;;;;;;;5118782;28;20019;-88
2021/05/15 03:25:43;;;;;;;13.00;9.15;;;;;;;;;;5118652;28;20028;-89
2021/05/15 03:28:09;;;;;;;11.95;8.90;;;;;;;;;;5117372;28;20037;-87
2021/05/15 03:30:35;;;;;;;15.15;10.95;;;;;;;;;;5118287;28;20032;-88
2021/05/15 03:33:01;;;;;;;12.45;10.88;;;;;;;;;;5118192;28;20049;-87
2021/05/15 03:35:28;;;;;;;12.10;10.70;;;;;;;;;;5118070;28;20319;-86
2021/05/15 03:37:54;;;;;;;16.05;10.57;;;;;;;;;;5117216;28;20020;-88
2021/05/15 03:40:20;;;;;;;12.55;10.02;;;;;;;;;;5118437;28;20031;-89
2021/05/15 03:42:47;;;;;;;11.05;9.27;;;;;;;;;;5118445;28;20030;-88
2021/05/15 03:45:14;;;;;;;11.90;9.32;;;;;;;;;;5118160;28;20024;-88
2021/05/15 03:47:59;;;;;;;10.27;8.93;;;;;;;;;;5121154;28;20106;-87
2021/05/15 03:50:26;;;;;;;12.43;9.38;;;;;;;;;;5120912;28;20393;-88
2021/05/15 03:52:52;;;;;;;9.95;8.48;;;;;;;;;;5122568;28;20099;-88
2021/05/15 03:55:19;;;;;;;13.63;8.20;;;;;;;;;;5121552;28;20035;-87
2021/05/15 03:57:45;;;;;;;11.88;7.90;;;;;;;;;;5122162;28;20031;-87
2021/05/15 04:00:11;;;;;;;8.80;7.82;;;;;;;;;;5122429;28;20111;-85
2021/05/15 04:02:38;;;;;;;12.30;8.23;;;;;;;;;;5122072;28;20308;-90
2021/05/15 04:05:05;;;;;;;11.40;8.10;;;;;;;;;;5122354;28;20028;-90
2021/05/15 04:07:31;;;;;;;10.00;8.27;;;;;;;;;;5122045;28;20023;-90
2021/05/15 04:09:57;;;;;;;11.57;8.57;;;;;;;;;;5121853;28;20027;-89
2021/05/15 04:12:25;;;;;;;8.85;7.95;;;;;;;;;;5121725;28;20028;-89
2021/05/15 04:15:03;;;;;;;9.30;7.80;;;;;;;;;;5122131;28;20066;-89
2021/05/15 04:17:29;;;;;;;10.20;9.20;;;;;;;;;;5121923;28;20016;-87
2021/05/15 04:19:56;;;;;;;9.52;7.72;;;;;;;;;;5122046;28;20080;-88
2021/05/15 04:22:22;;;;;;;16.05;8.50;;;;;;;;;;5122045;28;20020;-87
2021/05/15 04:24:48;;;;;;;9.32;7.30;;;;;;;;;;5121935;28;20313;-87
2021/05/15 04:27:14;;;;;;;9.63;7.75;;;;;;;;;;5121685;28;20024;-86
2021/05/15 04:29:41;;;;;;;10.13;8.40;;;;;;;;;;5121603;28;20038;-87
2021/05/15 04:32:07;;;;;;;9.32;8.38;;;;;;;;;;5121886;28;20036;-88
2021/05/15 04:34:33;;;;;;;9.23;7.53;;;;;;;;;;5121707;28;20305;-88
2021/05/15 04:37:00;;;;;;;7.82;7.03;;;;;;;;;;5120492;28;20022;-89
2021/05/15 04:39:28;;;;;;;7.22;6.53;;;;;;;;;;5121623;28;20020;-89
2021/05/15 04:41:54;;;;;;;9.32;6.75;;;;;;;;;;5121594;28;20027;-87
2021/05/15 04:44:20;;;;;;;8.18;7.35;;;;;;;;;;5121591;28;20024;-87
2021/05/15 04:46:46;;;;;;;8.90;6.63;;;;;;;;;;5121290;28;20050;-87
2021/05/15 04:49:12;;;;;;;7.28;6.45;;;;;;;;;;5121288;28;20301;-87
2021/05/15 04:51:40;;;;;;;8.13;6.45;;;;;;;;;;5119801;28;20030;-87
2021/05/15 04:54:06;;;;;;;9.57;6.75;;;;;;;;;;5121136;28;20424;-87
2021/05/15 04:56:32;;;;;;;7.43;6.32;;;;;;;;;;5121171;28;20150;-87
2021/05/15 04:58:58;;;;;;;9.05;6.57;;;;;;;;;;5119910;28;20024;-87
2021/05/15 05:01:49;;;;;;;8.40;7.25;;;;;;;;;;5120873;28;20111;-88
2021/05/15 05:04:15;;;;;;;9.13;7.72;;;;;;;;;;5119867;28;20417;-88
2021/05/15 05:06:41;;;;;;;7.20;6.43;;;;;;;;;;5121362;28;20028;-87
2021/05/15 05:09:07;;;;;;;8.10;6.90;;;;;;;;;;5121057;28;20020;-89
2021/05/15 05:11:33;;;;;;;8.70;7.80;;;;;;;;;;5121014;28;20032;-88
2021/05/15 05:13:59;;;;;;;9.10;7.35;;;;;;;;;;5119944;28;20061;-87
2021/05/15 05:16:25;;;;;;;9.20;7.07;;;;;;;;;;5119302;28;20127;-87
2021/05/15 05:18:51;;;;;;;9.45;7.70;;;;;;;;;;5119712;28;20041;-87
2021/05/15 05:21:18;;;;;;;10.25;8.13;;;;;;;;;;5120679;28;20027;-87
2021/05/15 05:23:44;;;;;;;9.52;7.35;;;;;;;;;;5120807;28;20034;-88
2021/05/15 05:26:10;;;;;;;9.27;8.00;;;;;;;;;;5119677;28;20016;-88
2021/05/15 05:28:38;;;;;;;10.50;8.50;;;;;;;;;;5119229;28;20048;-89
2021/05/15 05:31:04;;;;;;;10.00;8.00;;;;;;;;;;5119595;28;20436;-89
2021/05/15 05:36:34;;;;;;;11.52;8.25;;;;;;;;;;5120322;28;20115;-88
2021/05/15 05:39:01;;;;;;;12.88;8.25;;;;;;;;;;5120490;28;20012;-89
2021/05/15 05:41:27;;;;;;;18.77;9.90;;;;;;;;;;5120569;28;20089;-89
2021/05/15 05:43:53;;;;;;;11.77;8.68;;;;;;;;;;5119916;28;20020;-89
2021/05/15 05:46:20;;;;;;;12.55;8.30;;;;;;;;;;5120330;28;20023;-87
2021/05/15 05:48:47;;;;;;;12.63;8.50;;;;;;;;;;5120111;28;20401;-89
2021/05/15 05:51:13;;;;;;;9.98;8.27;;;;;;;;;;5119779;28;20135;-76
2021/05/15 05:53:39;;;;;;;10.23;8.20;;;;;;;;;;5119288;28;20393;-76
2021/05/15 05:56:05;;;;;;;11.65;8.82;;;;;;;;;;5119165;28;20119;-76
2021/05/15 05:58:31;;;;;;;15.77;11.63;;;;;;;;;;5118961;28;20019;-75
2021/05/15 06:00:58;;;;;;;15.02;10.32;;;;;;;;;;5119442;28;20355;-76
2021/05/15 06:03:24;;;;;;;10.38;8.40;;;;;;;;;;5119348;28;20070;-77
2021/05/15 06:05:50;;;;;;;11.20;9.52;;;;;;;;;;5118938;28;20038;-76
2021/05/15 06:08:17;;;;;;;11.02;9.43;;;;;;;;;;5119143;28;20398;-76
2021/05/15 06:10:43;;;;;;;10.95;8.35;;;;;;;;;;5118211;28;20024;-76
2021/05/15 06:13:09;;;;;;;12.10;8.75;;;;;;;;;;5119002;28;20114;-75
2021/05/15 06:15:36;;;;;;;12.98;9.57;;;;;;;;;;5118821;28;20031;-76
2021/05/15 06:18:02;;;;;;;13.13;8.55;;;;;;;;;;5118871;28;20056;-75
2021/05/15 06:20:28;;;;;;;10.00;8.20;;;;;;;;;;5118802;28;20059;-76
2021/05/15 06:22:55;;;;;;;8.60;7.80;;;;;;;;;;5119066;28;20095;-76
2021/05/15 06:25:21;;;;;;;9.13;8.10;;;;;;;;;;5118527;28;20027;-76
2021/05/15 06:27:47;;;;;;;9.52;8.52;;;;;;;;;;5118617;28;20033;-76
2021/05/15 06:30:13;;;;;;;10.25;8.52;;;;;;;;;;5118369;28;20044;-76
2021/05/15 06:32:40;;;;;;;9.30;8.32;;;;;;;;;;5118325;28;20035;-76
2021/05/15 06:35:06;;;;;;;11.25;8.95;;;;;;;;;;5118618;28;20039;-76
2021/05/15 06:37:32;;;;;;;11.30;9.20;;;;;;;;;;5118592;28;20016;-76
2021/05/15 06:39:58;;;;;;;12.57;9.63;;;;;;;;;;5118118;28;20019;-76
2021/05/15 06:42:24;;;;;;;10.27;9.18;;;;;;;;;;5118516;28;20781;-76
2021/05/15 06:44:50;;;;;;;43.10;31.73;;;;;;;;;;5118303;28;20299;-76
2021/05/15 06:47:17;;;;;;;42.30;30.30;;;;;;;;;;5118273;28;20027;-76
2021/05/15 06:49:43;;;;;;;21.60;16.50;;;;;;;;;;5118133;28;20126;-76
2021/05/15 06:52:10;;;;;;;10.25;8.68;;;;;;;;;;5118246;28;20394;-76
2021/05/15 06:54:36;;;;;;;19.63;14.13;;;;;;;;;;5117846;28;20034;-76
2021/05/15 06:57:02;;;;;;;11.93;10.32;;;;;;;;;;5118325;28;20059;-76
2021/05/15 06:59:28;;;;;;;18.73;13.98;;;;;;;;;;5115973;28;20822;-76
2021/05/15 07:01:54;;;;;;;26.83;21.50;;;;;;;;;;5109029;28;20100;-76
2021/05/15 07:04:20;;;;;;;27.20;20.65;;;;;;;;;;5117942;28;20042;-76
2021/05/15 07:06:48;;;;;;;21.45;16.75;;;;;;;;;;5117855;28;20072;-76
2021/05/15 07:09:14;;;;;;;12.05;9.73;;;;;;;;;;5117968;28;20020;-76
2021/05/15 07:11:40;;;;;;;25.25;18.20;;;;;;;;;;5117478;28;20016;-76
2021/05/15 07:14:06;;;;;;;21.13;16.70;;;;;;;;;;5118050;28;20043;-75
2021/05/15 07:16:32;;;;;;;22.35;17.90;;;;;;;;;;5117447;28;20027;-76
2021/05/15 07:18:58;;;;;;;13.90;10.45;;;;;;;;;;5106904;28;20444;-76
2021/05/15 07:21:24;;;;;;;9.15;8.25;;;;;;;;;;5102744;28;20043;-76
2021/05/15 07:23:51;;;;;;;15.80;11.48;;;;;;;;;;5095987;28;20032;-76
2021/05/15 07:26:17;;;;;;;27.98;21.60;;;;;;;;;;5097218;28;20027;-76
2021/05/15 07:28:43;;;;;;;16.52;12.32;;;;;;;;;;5095801;28;20703;-76
2021/05/15 07:31:09;;;;;;;11.32;9.07;;;;;;;;;;5097131;28;20363;-76
2021/05/15 07:33:35;;;;;;;9.20;8.18;;;;;;;;;;5097231;28;20020;-76
2021/05/15 07:36:01;;;;;;;13.60;10.13;;;;;;;;;;5097218;28;20028;-76
2021/05/15 07:38:28;;;;;;;16.17;13.30;;;;;;;;;;5097108;28;20020;-75
2021/05/15 07:40:55;;;;;;;9.35;8.45;;;;;;;;;;5096091;28;20023;-76
2021/05/15 07:43:25;;;;;;;15.52;12.70;;;;;;;;;;5097153;28;20016;-76
2021/05/15 07:45:52;;;;;;;11.57;9.52;;;;;;;;;;5097350;28;20360;-76
2021/05/15 07:48:28;;;;;;;9.95;8.77;;;;;;;;;;5095551;28;20051;-76
2021/05/15 07:50:54;;;;;;;12.73;11.30;;;;;;;;;;5096947;28;20111;-76
2021/05/15 07:53:20;;;;;;;10.95;8.52;;;;;;;;;;5097082;28;20031;-76
2021/05/15 07:55:46;;;;;;;13.98;11.55;;;;;;;;;;5096780;28;20032;-76
2021/05/15 07:58:12;;;;;;;7.18;6.38;;;;;;;;;;5097030;28;20023;-76
2021/05/15 08:00:38;;;;;;;18.27;14.55;;;;;;;;;;5097087;28;20028;-76
2021/05/15 08:03:05;;;;;;;8.82;6.72;;;;;;;;;;5097021;28;20016;-76
2021/05/15 08:05:31;;;;;;;9.25;7.07;;;;;;;;;;5097776;28;20087;-76
2021/05/15 08:07:57;;;;;;;9.75;6.18;;;;;;;;;;5100012;28;20032;-76
2021/05/15 08:10:23;;;;;;;8.55;7.10;;;;;;;;;;5095364;28;20040;-76
2021/05/15 08:12:49;;;;;;;7.28;6.57;;;;;;;;;;5096837;28;20454;-76
2021/05/15 08:15:15;;;;;;;9.45;6.97;;;;;;;;;;5096887;28;20307;-76
2021/05/15 08:17:41;;;;;;;8.07;6.63;;;;;;;;;;5096962;28;20410;-76
2021/05/15 08:20:07;;;;;;;8.50;7.22;;;;;;;;;;5096744;28;20406;-76
2021/05/15 08:22:33;;;;;;;8.40;7.38;;;;;;;;;;5095796;28;20028;-76
2021/05/15 08:25:00;;;;;;;7.95;6.95;;;;;;;;;;5096824;28;20027;-76
2021/05/15 08:27:26;;;;;;;7.68;6.57;;;;;;;;;;5096485;28;20053;-76
2021/05/15 08:29:52;;;;;;;10.48;6.57;;;;;;;;;;5096771;28;20089;-76
2021/05/15 08:32:19;;;;;;;7.38;6.07;;;;;;;;;;5097071;28;20042;-76
2021/05/15 08:34:45;;;;;;;7.95;6.40;;;;;;;;;;5099557;28;20067;-76
2021/05/15 08:37:11;;;;;;;9.32;6.70;;;;;;;;;;5100594;28;20016;-76
2021/05/15 08:39:37;;;;;;;8.25;6.45;;;;;;;;;;5100414;28;20391;-76
2021/05/15 08:42:03;;;;;;;7.97;6.38;;;;;;;;;;5100295;28;20024;-76
2021/05/15 08:44:30;;;;;;;8.32;6.30;;;;;;;;;;5100175;28;20344;-77
2021/05/15 08:46:57;;;;;;;8.02;5.50;;;;;;;;;;5100245;28;20027;-76
2021/05/15 08:49:23;;;;;;;7.50;5.72;;;;;;;;;;5099804;28;20089;-76
2021/05/15 08:51:50;;;;;;;5.72;5.13;;;;;;;;;;5100197;28;20476;-76
2021/05/15 08:54:16;;;;;;;6.40;5.10;;;;;;;;;;5100087;28;20028;-77
2021/05/15 08:56:43;;;;;;;6.47;5.65;;;;;;;;;;5100164;28;20314;-76
2021/05/15 08:59:10;;;;;;;7.35;6.38;;;;;;;;;;5100395;28;20107;-76
2021/05/15 09:01:36;;;;;;;9.40;7.18;;;;;;;;;;5099941;28;20088;-76
2021/05/15 09:04:02;;;;;;;7.82;5.45;;;;;;;;;;5100121;28;20028;-76
2021/05/15 09:06:28;;;;;;;5.80;4.38;;;;;;;;;;5099828;28;20063;-76
2021/05/15 09:08:54;;;;;;;6.50;5.82;;;;;;;;;;5099903;28;20020;-76
2021/05/15 09:11:20;;;;;;;7.80;6.80;;;;;;;;;;5099640;28;20310;-76
2021/05/15 09:13:53;;;;;;;7.15;5.53;;;;;;;;;;5098678;28;20107;-76
2021/05/15 09:16:21;;;;;;;8.75;5.78;;;;;;;;;;5099641;28;20028;-76
2021/05/15 09:18:47;;;;;;;12.02;8.50;;;;;;;;;;5099715;28;20356;-76
2021/05/15 09:21:15;;;;;;;8.07;7.15;;;;;;;;;;5099485;28;20025;-77
2021/05/15 09:23:44;;;;;;;6.10;5.60;;;;;;;;;;5099777;28;20027;-76
2021/05/15 09:26:12;;;;;;;7.65;5.28;;;;;;;;;;5099335;28;20432;-76
2021/05/15 09:28:41;;;;;;;13.18;9.68;;;;;;;;;;5098326;28;20366;-77
2021/05/15 09:31:11;;;;;;;9.40;4.80;;;;;;;;;;5098056;28;20036;-76
2021/05/15 09:33:37;;;;;;;8.93;4.80;;;;;;;;;;5099481;28;20047;-76
2021/05/15 09:36:15;;;;;;;6.45;4.70;;;;;;;;;;5099384;28;20025;-76
2021/05/15 09:38:41;;;;;;;5.30;4.80;;;;;;;;;;5099155;28;20028;-76
2021/05/15 09:41:07;;;;;;;6.43;5.57;;;;;;;;;;5099206;28;20016;-76
2021/05/15 09:43:33;;;;;;;5.78;4.97;;;;;;;;;;5099090;28;20027;-76
2021/05/15 09:45:59;;;;;;;7.35;5.50;;;;;;;;;;5098330;28;20310;-77
2021/05/15 09:48:38;;;;;;;9.43;6.00;;;;;;;;;;5097902;28;20028;-76
2021/05/15 09:51:17;;;;;;;5.50;4.75;;;;;;;;;;5098814;28;20364;-76
2021/05/15 09:53:43;;;;;;;9.00;6.15;;;;;;;;;;5099169;28;20130;-76
2021/05/15 09:56:09;;;;;;;3.35;2.42;;;;;;;;;;5098863;28;20107;-76
2021/05/15 09:58:35;;;;;;;4.65;2.53;;;;;;;;;;5097262;28;20414;-76
2021/05/15 10:01:01;;;;;;;3.75;1.85;;;;;;;;;;5098862;28;20420;-76
2021/05/15 10:03:29;;;;;;;3.72;1.90;;;;;;;;;;5097276;28;20093;-76
2021/05/15 10:05:58;;;;;;;3.33;2.30;;;;;;;;;;5098676;28;20027;-76
2021/05/15 10:08:24;;;;;;;6.40;1.80;;;;;;;;;;5099035;28;20051;-76
2021/05/15 10:10:52;;;;;;;2.65;2.38;;;;;;;;;;5097310;28;20036;-77
2021/05/15 10:13:18;;;;;;;5.18;3.40;;;;;;;;;;5098776;28;20024;-76
2021/05/15 10:15:45;;;;;;;6.18;1.85;;;;;;;;;;5098651;28;20028;-76
2021/05/15 10:18:12;;;;;;;3.38;1.48;;;;;;;;;;5098438;28;20023;-76
2021/05/15 10:20:39;;;;;;;2.17;1.98;;;;;;;;;;5098409;28;20020;-76
2021/05/15 10:23:06;;;;;;;6.53;1.80;;;;;;;;;;5098523;28;20020;-76
2021/05/15 10:25:33;;;;;;;4.50;1.70;;;;;;;;;;5098331;28;20044;-76
2021/05/15 10:28:03;;;;;;;5.03;2.10;;;;;;;;;;5098174;28;20051;-76
2021/05/15 10:30:29;;;;;;;3.90;1.38;;;;;;;;;;5098303;28;20051;-76
2021/05/15 10:33:02;;;;;;;2.85;1.77;;;;;;;;;;5098187;28;20035;-76
2021/05/15 10:35:33;;;;;;;2.30;1.13;;;;;;;;;;5098097;28;20024;-76
2021/05/15 10:38:02;;;;;;;2.88;1.60;;;;;;;;;;5098345;28;20020;-76
2021/05/15 10:40:30;;;;;;;4.80;1.60;;;;;;;;;;5098038;28;20054;-76
2021/05/15 10:43:00;;;;;;;2.63;1.90;;;;;;;;;;5098147;28;20028;-76
2021/05/15 10:45:39;;;;;;;3.13;1.50;;;;;;;;;;5097964;28;20028;-76
2021/05/15 10:48:12;;;;;;;2.53;1.40;;;;;;;;;;5097831;28;20467;-77
2021/05/15 10:50:49;;;;;;;3.78;2.45;;;;;;;;;;5097726;28;20083;-77
2021/05/15 10:53:24;;;;;;;5.68;2.25;;;;;;;;;;5098026;28;20344;-77
2021/05/15 10:56:01;;;;;;;4.78;2.30;;;;;;;;;;5097430;28;20426;-77
2021/05/15 10:58:38;;;;;;;6.10;2.25;;;;;;;;;;5097461;28;20027;-77
2021/05/15 11:01:08;;;;;;;6.13;2.17;;;;;;;;;;5104264;28;20028;-76
2021/05/15 11:03:35;;;;;;;4.47;1.77;;;;;;;;;;5103435;28;20030;-76
2021/05/15 11:06:11;;;;;;;2.17;1.50;;;;;;;;;;5096506;28;20034;-77
2021/05/15 11:08:38;;;;;;;3.80;1.17;;;;;;;;;;5097613;28;20051;-76
2021/05/15 11:11:12;;;;;;;2.40;1.05;;;;;;;;;;5097552;28;20099;-76
2021/05/15 11:13:47;;;;;;;2.42;1.40;;;;;;;;;;5097771;28;20032;-76
2021/05/15 11:16:14;;;;;;;2.95;1.02;;;;;;;;;;5097622;28;20047;-77
2021/05/15 11:18:40;;;;;;;5.28;1.30;;;;;;;;;;5097204;28;20069;-77
2021/05/15 11:21:07;;;;;;;3.25;1.15;;;;;;;;;;5097553;28;20028;-77
2021/05/15 11:23:37;;;;;;;4.30;1.30;;;;;;;;;;5097430;28;20013;-76
2021/05/15 11:26:11;;;;;;;3.53;1.25;;;;;;;;;;5097299;28;20032;-78
2021/05/15 11:28:37;;;;;;;2.10;0.80;;;;;;;;;;5097598;28;20364;-77
2021/05/15 11:31:10;;;;;;;3.45;1.02;;;;;;;;;;5096221;28;20406;-76
2021/05/15 11:33:36;;;;;;;3.50;0.90;;;;;;;;;;5097161;28;20028;-76
2021/05/15 11:36:02;;;;;;;1.10;0.80;;;;;;;;;;5114971;28;20028;-76
2021/05/15 11:38:32;;;;;;;2.45;0.90;;;;;;;;;;5117118;28;20027;-76
2021/05/15 11:41:01;;;;;;;2.80;0.80;;;;;;;;;;5117473;28;20020;-76
2021/05/15 11:43:30;;;;;;;3.03;1.10;;;;;;;;;;5117580;28;20031;-76
2021/05/15 11:45:56;;;;;;;4.45;0.90;;;;;;;;;;5117437;28;20027;-76
2021/05/15 11:48:24;;;;;;;3.00;1.10;;;;;;;;;;5117487;28;20028;-76
2021/05/15 11:50:57;;;;;;;3.53;1.02;;;;;;;;;;5116143;28;20071;-76
2021/05/15 11:53:23;;;;;;;5.40;1.42;;;;;;;;;;5117395;28;20410;-77
2021/05/15 11:55:51;;;;;;;5.10;1.20;;;;;;;;;;5117490;28;20064;-77
2021/05/15 11:58:17;;;;;;;3.08;1.40;;;;;;;;;;5117216;28;20020;-77
2021/05/15 12:00:44;;;;;;;4.10;1.50;;;;;;;;;;5117308;28;20056;-77
2021/05/15 12:03:10;;;;;;;9.70;2.03;;;;;;;;;;5116258;28;20020;-77
2021/05/15 12:05:36;;;;;;;7.47;1.10;;;;;;;;;;5117104;28;20028;-76
2021/05/15 12:08:12;;;;;;;62.85;5.18;;;;;;;;;;5118805;28;20024;-77
2021/05/15 12:10:40;;;;;;;194.73;13.20;;;;;;;;;;5120041;28;20112;-77
2021/05/15 12:13:06;;;;;;;12.27;2.55;;;;;;;;;;5121339;28;20451;-77
2021/05/15 12:15:33;;;;;;;7.55;1.83;;;;;;;;;;5121295;28;20089;-77
2021/05/15 12:18:02;;;;;;;6.15;1.60;;;;;;;;;;5121211;28;20024;-77
2021/05/15 12:20:31;;;;;;;3.30;1.70;;;;;;;;;;5121102;28;20077;-77
2021/05/15 12:23:07;;;;;;;3.33;1.77;;;;;;;;;;5121110;28;20028;-77
2021/05/15 12:25:33;;;;;;;5.22;1.60;;;;;;;;;;5121077;28;20020;-76
2021/05/15 12:27:59;;;;;;;6.18;2.00;;;;;;;;;;5120856;28;20020;-76
2021/05/15 12:30:26;;;;;;;8.00;1.90;;;;;;;;;;5121488;28;20359;-77
2021/05/15 12:33:21;;;;;;;6.40;2.03;;;;;;;;;;5120826;28;20074;-77
2021/05/15 12:36:00;;;;;;;13.27;3.08;;;;;;;;;;5038288;28;20112;-77
2021/05/15 12:38:27;;;;;;;8.45;2.40;;;;;;;;;;5038394;28;20104;-76
2021/05/15 12:40:54;;;;;;;5.32;2.15;;;;;;;;;;5038331;28;20117;-77
2021/05/15 12:43:24;;;;;;;4.13;1.95;;;;;;;;;;5038240;28;20025;-77
2021/05/15 12:45:51;;;;;;;9.45;2.40;;;;;;;;;;5038188;28;20045;-77
2021/05/15 12:48:35;;;;;;;12.85;3.33;;;;;;;;;;5038087;28;20120;-81
2021/05/15 12:51:01;;;;;;;6.50;2.00;;;;;;;;;;5038160;28;20045;-76
2021/05/15 12:53:28;;;;;;;6.18;2.63;;;;;;;;;;5021147;28;20495;-77
2021/05/15 12:55:55;;;;;;;5.90;2.10;;;;;;;;;;5038217;28;20033;-77
2021/05/15 12:58:25;;;;;;;3.05;1.67;;;;;;;;;;5037803;28;20477;-77
2021/05/15 13:01:04;;;;;;;3.30;1.65;;;;;;;;;;5038071;28;20045;-76
2021/05/15 13:03:31;;;;;;;7.85;2.15;;;;;;;;;;5037989;28;20025;-76
2021/05/15 13:05:58;;;;;;;7.18;1.80;;;;;;;;;;5037759;28;20041;-77
2021/05/15 13:08:30;;;;;;;6.90;2.20;;;;;;;;;;5037955;28;20362;-76
2021/05/15 13:11:07;;;;;;;3.25;1.40;;;;;;;;;;5038391;28;20038;-77
2021/05/15 13:13:33;;;;;;;6.43;1.85;;;;;;;;;;5119962;28;20012;-77
2021/05/15 13:16:00;;;;;;;4.60;2.05;;;;;;;;;;5120199;28;20031;-77
2021/05/15 13:18:26;;;;;;;3.15;1.60;;;;;;;;;;5120042;27;20046;-77
2021/05/15 13:20:52;;;;;;;2.75;1.40;;;;;;;;;;5120090;28;20032;-77
2021/05/15 13:23:18;;;;;;;2.67;1.60;;;;;;;;;;5120136;28;20027;-76
2021/05/15 13:25:44;;;;;;;5.05;1.60;;;;;;;;;;5119808;28;20048;-76
2021/05/15 13:28:10;;;;;;;8.35;3.30;;;;;;;;;;5119715;28;20032;-76
2021/05/15 13:30:36;;;;;;;4.68;1.63;;;;;;;;;;5118403;28;20123;-76
2021/05/15 13:33:02;;;;;;;6.00;1.50;;;;;;;;;;5119995;28;20290;-77
2021/05/15 13:35:28;;;;;;;8.00;1.75;;;;;;;;;;5119410;28;20306;-77
2021/05/15 13:37:54;;;;;;;8.18;1.85;;;;;;;;;;5119560;28;20397;-77
2021/05/15 13:40:21;;;;;;;8.07;3.33;;;;;;;;;;5118264;28;20325;-76
2021/05/15 13:42:47;;;;;;;9.23;2.92;;;;;;;;;;5113690;27;20115;-76
2021/05/15 13:45:13;;;;;;;31.77;24.42;;;;;;;;;;5107310;28;20119;-76
2021/05/15 13:47:39;;;;;;;6.47;4.97;;;;;;;;;;5099074;28;20313;-76
2021/05/15 13:50:06;;;;;;;8.50;3.42;;;;;;;;;;5098931;28;20059;-76
2021/05/15 13:52:32;;;;;;;18.00;10.50;;;;;;;;;;5099069;28;20046;-76
2021/05/15 13:54:58;;;;;;;6.10;4.35;;;;;;;;;;5097413;28;20028;-76
2021/05/15 13:57:24;;;;;;;3.80;1.50;;;;;;;;;;5099062;28;20024;-76
2021/05/15 13:59:50;;;;;;;14.10;10.23;;;;;;;;;;5098914;28;20024;-74
2021/05/15 14:02:16;;;;;;;4.35;1.70;;;;;;;;;;5098835;28;20310;-76
2021/05/15 14:04:43;;;;;;;3.75;2.38;;;;;;;;;;5098712;28;20016;-76
2021/05/15 14:07:09;;;;;;;4.53;2.58;;;;;;;;;;5098553;28;20099;-76
2021/05/15 14:09:35;;;;;;;3.90;1.70;;;;;;;;;;5098639;28;20023;-76
2021/05/15 14:12:01;;;;;;;5.15;2.10;;;;;;;;;;5098573;28;20023;-76
2021/05/15 14:14:27;;;;;;;4.70;1.52;;;;;;;;;;5098608;28;20402;-77
2021/05/15 14:16:53;;;;;;;2.65;1.42;;;;;;;;;;5098592;28;20020;-77
2021/05/15 14:19:19;;;;;;;4.55;1.30;;;;;;;;;;5098380;28;20024;-76
2021/05/15 14:21:45;;;;;;;4.72;1.90;;;;;;;;;;5098349;28;20509;-77
2021/05/15 14:24:11;;;;;;;4.32;1.30;;;;;;;;;;5098441;28;20284;-77
2021/05/15 14:26:37;;;;;;;3.42;1.13;;;;;;;;;;5098660;28;20024;-85
2021/05/15 14:29:03;;;;;;;7.32;2.20;;;;;;;;;;5097721;28;20032;-84
2021/05/15 14:31:29;;;;;;;11.23;3.00;;;;;;;;;;5098271;28;20314;-83
2021/05/15 14:33:57;;;;;;;5.95;2.17;;;;;;;;;;5098543;28;20024;-84
2021/05/15 14:36:23;;;;;;;3.85;2.05;;;;;;;;;;5097937;28;20063;-83
2021/05/15 14:38:49;;;;;;;6.82;2.35;;;;;;;;;;5098312;28;20016;-85
2021/05/15 14:41:16;;;;;;;9.60;2.03;;;;;;;;;;5098363;28;20024;-83
2021/05/15 14:43:42;;;;;;;6.20;1.70;;;;;;;;;;5098635;28;20023;-83
2021/05/15 14:46:09;;;;;;;5.78;2.20;;;;;;;;;;5098026;28;20310;-84
2021/05/15 14:48:35;;;;;;;5.35;1.75;;;;;;;;;;5098131;28;20028;-84
2021/05/15 14:51:04;;;;;;;3.42;1.77;;;;;;;;;;5098052;28;20055;-84
2021/05/15 14:53:31;;;;;;;5.25;1.95;;;;;;;;;;5096847;28;20051;-86
2021/05/15 14:56:00;;;;;;;12.07;6.70;;;;;;;;;;5100742;27;20028;-84
2021/05/15 14:58:26;;;;;;;3.55;1.60;;;;;;;;;;5120097;27;20035;-84
2021/05/15 15:00:53;;;;;;;4.22;1.63;;;;;;;;;;5118465;28;20103;-82
2021/05/15 15:03:39;;;;;;;2.97;1.88;;;;;;;;;;5118107;28;20069;-83